Time;durP1;ratioP1;P1;durP2;ratioP2;P2;SDS_P1;SDS_P2;PMS_P1;PMS_P2;Temp;Humidity;BMP_temperature;BMP_pressure;BME280_temperature;BME280_humidity;BME280_pressure;Samples;Min_cycle;Max_cycle;Signal;HPM_P1;HPM_P2
2022/10/20 00:02:23;;;;;;;11.25;6.72;;;14.30;71.10;;;;;;4786347;30;20052;-49
2022/10/20 00:04:50;;;;;;;9.43;7.35;;;14.20;71.10;;;;;;4781756;29;20059;-49
2022/10/20 00:07:17;;;;;;;11.38;6.47;;;14.20;71.10;;;;;;4786104;29;20154;-48
2022/10/20 00:09:43;;;;;;;9.50;7.63;;;14.20;71.10;;;;;;4787565;30;20070;-48
2022/10/20 00:12:10;;;;;;;9.50;7.38;;;14.20;71.30;;;;;;4785716;30;20047;-47
2022/10/20 00:14:39;;;;;;;8.27;7.25;;;14.20;71.30;;;;;;4779446;29;20075;-48
2022/10/20 00:17:05;;;;;;;8.40;6.63;;;14.10;72.00;;;;;;4786046;29;20685;-52
2022/10/20 00:19:32;;;;;;;10.48;7.38;;;14.10;71.40;;;;;;4797247;29;20421;-47
2022/10/20 00:21:59;;;;;;;9.63;7.30;;;14.10;71.60;;;;;;4799017;29;20737;-50
2022/10/20 00:24:26;;;;;;;11.68;8.02;;;14.10;71.70;;;;;;4781537;29;20047;-48
2022/10/20 00:26:53;;;;;;;9.75;8.05;;;14.10;71.90;;;;;;4785761;30;20081;-49
2022/10/20 00:29:21;;;;;;;11.00;7.45;;;14.10;72.00;;;;;;4787010;29;20116;-48
2022/10/20 00:31:48;;;;;;;10.00;8.10;;;14.10;72.10;;;;;;4782458;30;20071;-50
2022/10/20 00:34:14;;;;;;;10.10;8.57;;;14.10;72.20;;;;;;4782815;29;20055;-49
2022/10/20 00:36:41;;;;;;;12.55;8.63;;;14.10;72.30;;;;;;4785382;30;20053;-48
2022/10/20 00:39:11;;;;;;;10.05;8.40;;;14.10;72.40;;;;;;4786876;29;20059;-49
2022/10/20 00:41:38;;;;;;;11.52;8.52;;;14.10;72.50;;;;;;4780918;29;20070;-51
2022/10/20 00:44:45;;;;;;;11.73;8.98;;;14.10;72.60;;;;;;4786204;29;20047;-48
2022/10/20 00:47:15;;;;;;;10.75;8.55;;;14.10;73.40;;;;;;4785986;30;20059;-48
2022/10/20 00:49:42;;;;;;;9.57;8.00;;;14.10;72.70;;;;;;4782382;29;20051;-48
2022/10/20 00:52:10;;;;;;;11.90;9.35;;;14.10;72.80;;;;;;4780214;29;20051;-51
2022/10/20 00:54:37;;;;;;;11.00;8.65;;;14.10;72.90;;;;;;4786414;29;20069;-49
2022/10/20 00:57:04;;;;;;;11.98;8.30;;;14.10;73.00;;;;;;4785942;30;20051;-49
2022/10/20 00:59:33;;;;;;;12.45;8.93;;;14.10;73.10;;;;;;4785025;29;20047;-51
2022/10/20 01:02:02;;;;;;;11.68;9.45;;;14.10;73.20;;;;;;4781645;30;20086;-51
2022/10/20 01:04:48;;;;;;;12.35;8.73;;;14.10;73.10;;;;;;4786808;29;20062;-48
2022/10/20 01:07:33;;;;;;;11.60;8.80;;;14.10;73.00;;;;;;4786378;30;20069;-48
2022/10/20 01:10:06;;;;;;;10.50;9.35;;;14.10;73.00;;;;;;4778851;29;20052;-48
2022/10/20 01:13:24;;;;;;;13.32;9.63;;;14.10;73.30;;;;;;4783049;30;20066;-51
2022/10/20 01:16:15;;;;;;;11.70;9.23;;;14.10;74.10;;;;;;4779922;30;20134;-49
2022/10/20 01:19:02;;;;;;;11.65;9.55;;;14.20;74.10;;;;;;4788948;29;20075;-47
2022/10/20 01:21:38;;;;;;;13.57;9.75;;;14.20;74.10;;;;;;4779884;29;20071;-48
2022/10/20 01:24:15;;;;;;;13.88;10.10;;;14.20;73.90;;;;;;4784874;29;20078;-50
2022/10/20 01:27:20;;;;;;;12.95;9.90;;;14.20;73.90;;;;;;4785206;29;20100;-48
2022/10/20 01:30:00;;;;;;;11.30;9.00;;;14.20;74.20;;;;;;4781393;30;20134;-48
2022/10/20 01:32:52;;;;;;;10.95;9.02;;;14.20;74.00;;;;;;4783324;29;20059;-49
2022/10/20 01:35:45;;;;;;;14.68;10.25;;;14.20;73.70;;;;;;4766651;30;20052;-51
2022/10/20 01:38:35;;;;;;;13.10;9.68;;;14.20;73.90;;;;;;4772745;30;20061;-50
2022/10/20 01:41:25;;;;;;;11.73;9.55;;;14.20;74.10;;;;;;4784895;30;20075;-51
2022/10/20 01:43:53;;;;;;;14.55;9.77;;;14.30;73.90;;;;;;4785011;29;20043;-48
2022/10/20 01:46:25;;;;;;;12.27;9.38;;;14.30;73.60;;;;;;4783864;30;20086;-47
2022/10/20 01:48:52;;;;;;;13.55;10.40;;;14.30;73.80;;;;;;4779920;29;20051;-49
2022/10/20 01:51:21;;;;;;;12.88;9.73;;;14.30;73.70;;;;;;4784682;29;20104;-47
2022/10/20 01:53:48;;;;;;;14.00;9.85;;;14.30;73.80;;;;;;4783867;29;20051;-51
2022/10/20 01:56:28;;;;;;;12.05;9.00;;;14.30;73.80;;;;;;4782091;30;20421;-50
2022/10/20 01:59:28;;;;;;;11.73;8.98;;;14.30;74.20;;;;;;4785088;29;20122;-50
2022/10/20 02:02:22;;;;;;;13.52;9.68;;;14.30;74.40;;;;;;4784449;30;20437;-47
2022/10/20 02:05:03;;;;;;;17.50;10.15;;;14.30;74.00;;;;;;4782362;29;20126;-51
2022/10/20 02:07:32;;;;;;;10.10;8.80;;;14.40;74.00;;;;;;4778670;29;20055;-51
2022/10/20 02:10:07;;;;;;;12.32;9.60;;;14.40;73.60;;;;;;4785351;29;20055;-48
2022/10/20 02:12:37;;;;;;;;;;;14.40;73.90;;;;;;4784151;30;20082;-49
2022/10/20 02:15:05;;;;;;;12.15;9.57;;;14.40;74.10;;;;;;4782161;29;19972;-51
2022/10/20 02:17:34;;;;;;;14.52;9.50;;;14.40;73.20;;;;;;4781414;29;20130;-50
2022/10/20 02:20:03;;;;;;;10.98;9.48;;;14.40;73.30;;;;;;4786465;29;20044;-51
2022/10/20 02:22:36;;;;;;;14.40;9.45;;;14.40;73.30;;;;;;4783510;30;20105;-49
2022/10/20 02:25:04;;;;;;;11.32;9.90;;;14.40;73.30;;;;;;4778943;29;20048;-49
2022/10/20 02:27:37;;;;;;;11.23;8.38;;;14.40;73.40;;;;;;4777999;30;20051;-51
2022/10/20 02:32:37;;;;;;;11.18;9.48;;;14.40;73.40;;;;;;4779396;29;20211;-45
2022/10/20 02:35:09;;;;;;;12.45;8.48;;;14.40;73.50;;;;;;4784659;30;20115;-47
2022/10/20 02:37:36;;;;;;;9.70;8.18;;;14.40;73.50;;;;;;4783878;29;20056;-45
2022/10/20 02:40:03;;;;;;;11.95;9.55;;;14.40;73.40;;;;;;4783901;29;20164;-47
2022/10/20 02:42:34;;;;;;;10.73;8.65;;;14.40;73.40;;;;;;4762497;30;20529;-49
2022/10/20 02:45:01;;;;;;;10.10;8.73;;;14.50;73.40;;;;;;4761381;30;20123;-46
2022/10/20 02:47:28;;;;;;;11.00;9.43;;;14.40;73.30;;;;;;4764562;30;20438;-48
2022/10/20 02:49:54;;;;;;;11.75;9.07;;;14.40;73.30;;;;;;4763658;30;20083;-46
2022/10/20 02:52:27;;;;;;;11.63;9.05;;;14.40;73.30;;;;;;4766072;30;20130;-47
2022/10/20 02:54:58;;;;;;;10.90;8.80;;;14.40;73.40;;;;;;4767290;30;20131;-47
2022/10/20 02:57:25;;;;;;;14.77;8.95;;;14.40;73.40;;;;;;4762603;30;20598;-48
2022/10/20 02:59:52;;;;;;;11.98;8.35;;;14.40;73.30;;;;;;4766827;30;20394;-46
2022/10/20 03:02:19;;;;;;;10.90;8.68;;;14.40;73.30;;;;;;4764641;30;20058;-47
2022/10/20 03:04:48;;;;;;;12.00;7.72;;;14.40;73.30;;;;;;4767682;30;20046;-47
2022/10/20 03:07:15;;;;;;;12.02;8.95;;;14.40;73.40;;;;;;4770201;30;20052;-47
2022/10/20 03:09:47;;;;;;;10.30;8.05;;;14.40;73.30;;;;;;4769386;30;20538;-50
2022/10/20 03:12:14;;;;;;;9.98;8.57;;;14.40;73.40;;;;;;4765205;30;20077;-46
2022/10/20 03:14:41;;;;;;;13.77;9.43;;;14.40;73.30;;;;;;4770205;30;20051;-46
2022/10/20 03:17:10;;;;;;;11.18;8.40;;;14.40;73.20;;;;;;4771420;30;20123;-47
2022/10/20 03:19:40;;;;;;;11.43;8.73;;;14.40;73.20;;;;;;4768250;30;20126;-47
2022/10/20 03:22:09;;;;;;;11.80;8.95;;;14.40;73.20;;;;;;4764509;30;20036;-49
2022/10/20 03:24:38;;;;;;;12.82;8.50;;;14.40;73.20;;;;;;4769942;30;20048;-48
2022/10/20 03:27:05;;;;;;;11.30;8.95;;;14.40;73.30;;;;;;4769764;30;20138;-46
2022/10/20 03:29:35;;;;;;;9.77;8.13;;;14.40;73.20;;;;;;4770458;30;20477;-49
2022/10/20 03:32:02;;;;;;;12.32;8.68;;;14.40;73.20;;;;;;4764973;30;20055;-46
2022/10/20 03:34:29;;;;;;;12.25;8.98;;;14.40;73.20;;;;;;4769419;30;20057;-50
2022/10/20 03:36:58;;;;;;;11.02;8.77;;;14.40;73.10;;;;;;4769801;30;20047;-48
2022/10/20 03:39:25;;;;;;;11.38;8.38;;;14.50;73.20;;;;;;4765494;30;20068;-46
2022/10/20 03:41:52;;;;;;;12.52;8.48;;;14.40;73.10;;;;;;4764936;30;20047;-49
2022/10/20 03:44:19;;;;;;;11.25;8.68;;;14.40;73.10;;;;;;4764623;30;20651;-49
2022/10/20 03:46:46;;;;;;;12.88;9.10;;;14.40;73.10;;;;;;4758149;30;20051;-49
2022/10/20 03:49:13;;;;;;;13.82;8.30;;;14.50;73.10;;;;;;4765648;30;20054;-49
2022/10/20 03:51:40;;;;;;;9.73;8.60;;;14.50;73.10;;;;;;4764509;30;20055;-47
2022/10/20 03:54:09;;;;;;;10.60;9.38;;;14.50;73.10;;;;;;4761398;30;20044;-47
2022/10/20 03:56:35;;;;;;;9.52;8.43;;;14.50;73.10;;;;;;4763197;30;20060;-47
2022/10/20 03:59:04;;;;;;;12.90;8.55;;;14.50;72.90;;;;;;4764478;30;20071;-49
2022/10/20 04:01:32;;;;;;;13.02;9.10;;;14.50;72.90;;;;;;4768018;30;20051;-47
2022/10/20 04:03:59;;;;;;;11.38;8.15;;;14.50;72.90;;;;;;4768991;30;20055;-48
2022/10/20 04:06:25;;;;;;;9.90;8.07;;;14.50;72.80;;;;;;4765714;30;20044;-50
2022/10/20 04:08:52;;;;;;;12.40;8.57;;;14.50;72.80;;;;;;4778604;30;20059;-47
2022/10/20 04:11:25;;;;;;;9.98;8.88;;;14.50;72.80;;;;;;4769412;30;20047;-46
2022/10/20 04:13:53;;;;;;;10.38;9.18;;;14.50;72.90;;;;;;4769190;30;20079;-49
2022/10/20 04:16:20;;;;;;;12.80;8.95;;;14.50;72.80;;;;;;4763853;30;20048;-50
2022/10/20 04:18:50;;;;;;;10.70;9.15;;;14.50;72.80;;;;;;4764150;30;20059;-47
2022/10/20 04:21:17;;;;;;;12.68;8.50;;;14.50;72.80;;;;;;4768593;30;20036;-48
2022/10/20 04:23:44;;;;;;;12.05;8.57;;;14.50;72.80;;;;;;4767654;30;20055;-46
2022/10/20 04:26:14;;;;;;;9.77;7.95;;;14.50;72.80;;;;;;4764229;30;20119;-48
2022/10/20 04:28:42;;;;;;;10.57;8.37;;;14.50;72.80;;;;;;4768479;30;20119;-47
2022/10/20 04:31:11;;;;;;;10.75;8.15;;;14.50;72.70;;;;;;4768116;30;20086;-47
2022/10/20 04:33:37;;;;;;;10.88;7.70;;;14.50;72.70;;;;;;4782733;30;20051;-48
2022/10/20 04:36:07;;;;;;;11.65;7.43;;;14.40;72.60;;;;;;4763790;29;20062;-50
2022/10/20 04:38:34;;;;;;;10.90;8.65;;;14.50;72.80;;;;;;4764435;30;20050;-45
2022/10/20 04:41:03;;;;;;;10.52;8.40;;;14.50;72.70;;;;;;4759218;30;20724;-50
2022/10/20 04:43:33;;;;;;;10.88;8.27;;;14.50;72.70;;;;;;4755752;30;20131;-47
2022/10/20 04:46:01;;;;;;;9.80;7.55;;;14.50;72.70;;;;;;4760040;30;20044;-46
2022/10/20 04:48:33;;;;;;;10.30;7.28;;;14.50;72.60;;;;;;4750827;30;20060;-50
2022/10/20 04:51:08;;;;;;;14.35;8.13;;;14.50;72.60;;;;;;4758630;30;20068;-47
2022/10/20 04:53:36;;;;;;;9.63;7.97;;;14.50;72.80;;;;;;4755515;30;20044;-47
2022/10/20 04:56:05;;;;;;;9.38;7.30;;;14.50;72.60;;;;;;4756184;30;20044;-46
2022/10/20 04:58:32;;;;;;;11.40;7.30;;;14.50;72.50;;;;;;4763362;30;20048;-48
2022/10/20 05:01:01;;;;;;;12.93;7.50;;;14.50;72.50;;;;;;4768231;30;20051;-47
2022/10/20 05:03:28;;;;;;;10.32;8.13;;;14.50;72.40;;;;;;4766907;30;20091;-46
2022/10/20 05:06:07;;;;;;;9.60;7.85;;;14.50;72.30;;;;;;4764855;30;20036;-50
2022/10/20 05:08:34;;;;;;;10.50;7.88;;;14.50;72.50;;;;;;4761074;30;20052;-47
2022/10/20 05:11:01;;;;;;;8.73;7.80;;;14.50;72.20;;;;;;4766718;30;20477;-47
2022/10/20 05:13:27;;;;;;;8.77;7.90;;;14.50;72.20;;;;;;4765696;30;20055;-46
2022/10/20 05:15:54;;;;;;;8.60;6.97;;;14.50;72.20;;;;;;4762208;30;20067;-48
2022/10/20 05:18:21;;;;;;;11.63;7.88;;;14.50;72.20;;;;;;4762879;30;20047;-49
2022/10/20 05:20:47;;;;;;;13.32;7.82;;;14.50;72.20;;;;;;4766419;30;20460;-48
2022/10/20 05:23:34;;;;;;;9.20;7.05;;;14.50;72.20;;;;;;4764757;30;20056;-47
2022/10/20 05:26:03;;;;;;;9.98;7.40;;;14.50;72.10;;;;;;4765108;30;20050;-50
2022/10/20 05:28:29;;;;;;;9.73;7.50;;;14.40;72.10;;;;;;4764734;30;20059;-50
2022/10/20 05:31:04;;;;;;;11.43;7.82;;;14.40;72.00;;;;;;4762730;30;20075;-50
2022/10/20 05:33:31;;;;;;;10.52;7.97;;;14.40;72.20;;;;;;4772737;30;20052;-50
2022/10/20 05:35:58;;;;;;;9.65;7.85;;;14.40;72.10;;;;;;4763717;30;20064;-51
2022/10/20 05:38:24;;;;;;;9.20;7.63;;;14.40;72.10;;;;;;4766106;30;20470;-47
2022/10/20 05:40:53;;;;;;;11.18;7.40;;;14.40;72.10;;;;;;4753468;30;20051;-47
2022/10/20 05:43:20;;;;;;;9.73;7.00;;;14.40;72.10;;;;;;4757355;30;20051;-47
2022/10/20 05:45:53;;;;;;;10.45;8.60;;;14.40;72.10;;;;;;4763145;30;20131;-48
2022/10/20 05:48:19;;;;;;;8.55;7.50;;;14.40;72.20;;;;;;4765261;30;20052;-47
2022/10/20 05:50:46;;;;;;;9.93;8.48;;;14.40;72.10;;;;;;4757543;30;20105;-48
2022/10/20 05:53:13;;;;;;;9.88;7.57;;;14.40;72.20;;;;;;4760087;30;20075;-49
2022/10/20 05:55:39;;;;;;;8.93;7.53;;;14.40;72.80;;;;;;4758444;30;20044;-48
2022/10/20 05:58:06;;;;;;;9.73;8.45;;;14.40;72.20;;;;;;4768007;30;20134;-50
2022/10/20 06:00:40;;;;;;;9.73;7.35;;;14.40;72.20;;;;;;4758569;30;20044;-51
2022/10/20 06:03:07;;;;;;;11.32;7.88;;;14.40;72.30;;;;;;4759681;30;20055;-49
2022/10/20 06:05:34;;;;;;;11.50;8.32;;;14.40;72.10;;;;;;4762568;30;20051;-48
2022/10/20 06:08:01;;;;;;;10.40;7.72;;;14.40;72.10;;;;;;4766244;30;20052;-51
2022/10/20 06:10:27;;;;;;;9.73;8.07;;;14.40;72.20;;;;;;4761289;30;20648;-49
2022/10/20 06:12:54;;;;;;;9.52;7.88;;;14.40;72.10;;;;;;4762417;30;20056;-50
2022/10/20 06:15:20;;;;;;;9.68;8.05;;;14.40;72.10;;;;;;4766029;30;20060;-48
2022/10/20 06:17:47;;;;;;;11.73;7.80;;;14.40;72.10;;;;;;4772448;30;20590;-50
2022/10/20 06:20:14;;;;;;;9.07;6.90;;;14.40;72.10;;;;;;4763714;30;20050;-48
2022/10/20 06:22:40;;;;;;;12.13;8.27;;;14.40;72.10;;;;;;4765383;30;20052;-51
2022/10/20 06:25:07;;;;;;;10.90;8.15;;;14.40;72.10;;;;;;4765725;30;20064;-49
2022/10/20 06:27:34;;;;;;;8.45;7.55;;;14.40;72.20;;;;;;4764011;30;20567;-47
2022/10/20 06:30:01;;;;;;;9.73;7.78;;;14.40;72.10;;;;;;4760723;30;20054;-49
2022/10/20 06:32:29;;;;;;;8.77;7.88;;;14.40;72.10;;;;;;4767253;30;20576;-49
2022/10/20 06:34:56;;;;;;;15.00;8.50;;;14.50;72.10;;;;;;4769280;29;20055;-51
2022/10/20 06:37:23;;;;;;;13.02;8.90;;;14.40;72.10;;;;;;4785054;29;20054;-47
2022/10/20 06:39:49;;;;;;;17.35;8.52;;;14.50;72.20;;;;;;4759617;29;20059;-51
2022/10/20 06:42:16;;;;;;;7.75;7.03;;;14.50;72.10;;;;;;4774120;30;20548;-51
2022/10/20 06:44:45;;;;;;;10.35;8.05;;;14.50;72.10;;;;;;4774713;30;20058;-51
2022/10/20 06:47:12;;;;;;;9.93;7.88;;;14.50;72.10;;;;;;4784522;29;20048;-54
2022/10/20 06:49:39;;;;;;;12.05;8.32;;;14.60;72.10;;;;;;4773672;29;20069;-50
2022/10/20 06:52:05;;;;;;;12.13;8.43;;;14.60;72.10;;;;;;4764391;30;20047;-51
2022/10/20 06:54:39;;;;;;;9.45;7.32;;;14.60;72.10;;;;;;4770158;30;20086;-51
2022/10/20 06:57:06;;;;;;;10.93;7.68;;;14.60;71.90;;;;;;4770664;30;20588;-49
2022/10/20 06:59:33;;;;;;;10.45;7.43;;;14.60;71.90;;;;;;4771336;30;20051;-51
2022/10/20 07:02:00;;;;;;;9.73;7.35;;;14.60;72.00;;;;;;4765657;30;20044;-51
2022/10/20 07:04:27;;;;;;;12.77;8.25;;;14.70;72.00;;;;;;4770333;30;20052;-52
2022/10/20 07:06:54;;;;;;;10.15;7.93;;;14.70;72.00;;;;;;4766486;30;20044;-51
2022/10/20 07:09:20;;;;;;;8.80;7.55;;;14.70;71.90;;;;;;4764253;30;20069;-50
2022/10/20 07:11:54;;;;;;;9.63;7.43;;;14.80;72.00;;;;;;4770805;30;20055;-51
2022/10/20 07:14:20;;;;;;;10.23;8.80;;;14.80;72.00;;;;;;4761491;30;20056;-50
2022/10/20 07:16:47;;;;;;;12.40;7.97;;;14.80;71.90;;;;;;4764338;30;20047;-51
2022/10/20 07:19:14;;;;;;;10.35;7.88;;;14.90;72.00;;;;;;4765197;30;20048;-51
2022/10/20 07:21:41;;;;;;;11.48;7.90;;;14.90;71.80;;;;;;4770585;30;20079;-51
2022/10/20 07:24:11;;;;;;;10.18;7.28;;;14.90;71.90;;;;;;4768714;30;20405;-51
2022/10/20 07:26:40;;;;;;;9.90;7.50;;;14.90;71.80;;;;;;4767592;30;20047;-49
2022/10/20 07:29:07;;;;;;;10.88;7.82;;;15.00;71.80;;;;;;4778213;30;20062;-50
2022/10/20 07:31:37;;;;;;;13.23;8.13;;;15.00;71.70;;;;;;4777997;30;20051;-51
2022/10/20 07:34:05;;;;;;;12.50;9.00;;;15.00;71.60;;;;;;4763169;29;20419;-51
2022/10/20 07:36:50;;;;;;;9.07;7.40;;;15.10;71.60;;;;;;4766827;30;20134;-52
2022/10/20 07:39:16;;;;;;;12.48;8.07;;;15.10;71.50;;;;;;4770370;30;20508;-52
2022/10/20 07:41:46;;;;;;;9.57;6.70;;;15.10;71.60;;;;;;4770522;30;20481;-51
2022/10/20 07:44:13;;;;;;;14.02;8.07;;;15.20;71.60;;;;;;4765670;30;20502;-51
2022/10/20 07:46:39;;;;;;;9.15;7.10;;;15.20;71.60;;;;;;4769745;30;20055;-51
2022/10/20 07:49:08;;;;;;;10.27;7.82;;;15.20;71.60;;;;;;4770470;30;20146;-51
2022/10/20 07:51:55;;;;;;;10.30;7.63;;;15.20;71.50;;;;;;4768841;30;20047;-51
2022/10/20 07:54:21;;;;;;;9.35;6.80;;;15.30;71.60;;;;;;4767232;30;20043;-51
2022/10/20 07:56:48;;;;;;;9.77;7.60;;;15.40;71.60;;;;;;4769678;30;20047;-51
2022/10/20 07:59:15;;;;;;;12.90;7.35;;;15.40;71.60;;;;;;4770213;30;20118;-51
2022/10/20 08:01:42;;;;;;;11.40;7.68;;;15.40;71.50;;;;;;4768574;30;20123;-51
2022/10/20 08:04:10;;;;;;;9.25;6.97;;;15.50;71.40;;;;;;4765049;30;20071;-51
2022/10/20 08:06:36;;;;;;;9.45;7.20;;;15.60;71.40;;;;;;4768274;30;20114;-51
2022/10/20 08:09:06;;;;;;;8.73;7.82;;;15.60;71.40;;;;;;4762805;30;20047;-50
2022/10/20 08:11:32;;;;;;;9.35;7.30;;;15.60;71.40;;;;;;4765095;30;20476;-51
2022/10/20 08:13:59;;;;;;;10.15;6.95;;;15.70;71.30;;;;;;4762821;30;20517;-51
2022/10/20 08:16:26;;;;;;;10.43;6.78;;;15.70;71.10;;;;;;4764729;30;20585;-50
2022/10/20 08:18:53;;;;;;;11.43;7.22;;;15.80;71.00;;;;;;4768817;30;20104;-51
2022/10/20 08:21:32;;;;;;;8.07;7.22;;;15.80;70.90;;;;;;4762716;30;20048;-51
2022/10/20 08:24:01;;;;;;;8.77;7.30;;;15.90;70.80;;;;;;4768750;29;20073;-51
2022/10/20 08:26:28;;;;;;;7.90;6.95;;;15.90;70.80;;;;;;4769684;30;20054;-47
2022/10/20 08:28:54;;;;;;;8.23;6.93;;;15.90;70.70;;;;;;4764220;30;20086;-52
2022/10/20 08:31:22;;;;;;;9.20;7.07;;;16.00;70.90;;;;;;4766654;30;20126;-50
2022/10/20 08:33:49;;;;;;;7.90;6.53;;;16.00;70.60;;;;;;4765700;30;20086;-51
2022/10/20 08:36:19;;;;;;;11.02;7.55;;;16.10;70.50;;;;;;4765597;30;20127;-51
2022/10/20 08:38:46;;;;;;;7.15;6.45;;;16.10;70.40;;;;;;4763921;30;20060;-52
2022/10/20 08:41:22;;;;;;;10.07;7.22;;;16.10;70.20;;;;;;4801555;24;20051;-48
2022/10/20 08:43:51;;;;;;;8.38;6.78;;;16.20;70.10;;;;;;4790349;29;20057;-48
2022/10/20 08:46:26;;;;;;;9.73;7.20;;;16.20;70.20;;;;;;4789210;29;20045;-48
2022/10/20 08:48:52;;;;;;;9.02;7.03;;;16.20;70.20;;;;;;4793053;29;20051;-46
2022/10/20 08:51:35;;;;;;;12.90;8.63;;;16.20;70.30;;;;;;4781594;29;20047;-45
2022/10/20 08:54:02;;;;;;;10.20;6.78;;;16.30;70.30;;;;;;4785050;30;20063;-48
2022/10/20 08:56:32;;;;;;;11.05;7.60;;;16.40;70.60;;;;;;4785570;29;20059;-45
2022/10/20 08:59:02;;;;;;;10.77;6.72;;;16.40;70.50;;;;;;4791319;29;20127;-46
2022/10/20 09:01:33;;;;;;;11.63;7.63;;;16.50;70.30;;;;;;4796365;29;20047;-46
2022/10/20 09:04:22;;;;;;;9.07;7.60;;;16.60;70.10;;;;;;4795846;29;20051;-46
2022/10/20 09:07:04;;;;;;;8.63;6.85;;;16.60;70.00;;;;;;4792646;29;20047;-47
2022/10/20 09:09:32;;;;;;;9.20;6.60;;;16.70;69.70;;;;;;4786875;29;20047;-45
2022/10/20 09:12:05;;;;;;;8.10;6.72;;;16.80;69.80;;;;;;4786812;29;20058;-45
2022/10/20 09:14:35;;;;;;;10.25;7.30;;;16.80;69.80;;;;;;4786270;29;20130;-45
2022/10/20 09:17:03;;;;;;;10.27;6.82;;;16.90;70.00;;;;;;4785734;29;20505;-48
2022/10/20 09:19:36;;;;;;;10.63;7.28;;;16.90;69.80;;;;;;4782853;29;20118;-45
2022/10/20 09:22:05;;;;;;;8.50;7.07;;;17.00;69.80;;;;;;4786237;29;20043;-46
2022/10/20 09:24:35;;;;;;;9.07;6.35;;;17.10;69.50;;;;;;4780994;29;20051;-45
2022/10/20 09:27:21;;;;;;;7.45;6.35;;;17.10;69.50;;;;;;4788746;29;20046;-45
2022/10/20 09:29:48;;;;;;;11.82;6.53;;;17.20;69.40;;;;;;4797475;29;20051;-45
2022/10/20 09:32:29;;;;;;;8.98;6.18;;;17.30;69.40;;;;;;4786657;29;20598;-46
2022/10/20 09:35:21;;;;;;;7.82;6.45;;;17.30;69.10;;;;;;4791645;29;20163;-46
2022/10/20 09:38:04;;;;;;;7.93;6.90;;;17.40;68.90;;;;;;4789244;29;20043;-45
2022/10/20 09:40:31;;;;;;;7.28;6.47;;;17.50;68.90;;;;;;4789328;29;20051;-45
2022/10/20 09:43:15;;;;;;;8.10;6.55;;;17.50;68.70;;;;;;4794916;29;20054;-46
2022/10/20 09:46:09;;;;;;;7.05;6.25;;;17.50;68.60;;;;;;4789409;29;20063;-49
2022/10/20 09:48:46;;;;;;;8.23;6.15;;;17.60;68.60;;;;;;4794062;29;20685;-47
2022/10/20 09:51:17;;;;;;;8.68;6.80;;;17.60;68.40;;;;;;4786169;29;20058;-49
2022/10/20 09:53:57;;;;;;;9.20;6.25;;;17.60;69.20;;;;;;4780664;29;20065;-46
2022/10/20 09:56:34;;;;;;;7.25;6.25;;;17.60;68.20;;;;;;4775246;30;20043;-45
2022/10/20 09:59:05;;;;;;;7.47;6.03;;;17.60;68.10;;;;;;4784055;30;20050;-46
2022/10/20 10:01:31;;;;;;;7.88;6.40;;;17.50;68.10;;;;;;4786087;29;20061;-50
2022/10/20 10:04:00;;;;;;;7.18;6.00;;;17.60;68.30;;;;;;4784859;29;20082;-52
2022/10/20 10:06:36;;;;;;;8.00;6.28;;;17.60;68.30;;;;;;4781725;29;20059;-51
2022/10/20 10:09:27;;;;;;;7.45;6.32;;;17.60;68.40;;;;;;4780257;29;20047;-53
2022/10/20 10:12:12;;;;;;;8.98;5.47;;;17.60;68.20;;;;;;4782705;29;20065;-53
2022/10/20 10:14:53;;;;;;;11.70;6.60;;;17.70;68.10;;;;;;4780875;29;21025;-51
2022/10/20 10:17:35;;;;;;;7.63;6.07;;;17.70;68.00;;;;;;4783808;29;20432;-50
2022/10/20 10:20:06;;;;;;;11.00;6.88;;;17.80;68.10;;;;;;4782450;29;20051;-51
2022/10/20 10:22:34;;;;;;;8.18;7.05;;;17.80;68.30;;;;;;4778508;29;20117;-51
2022/10/20 10:25:02;;;;;;;7.28;5.50;;;17.80;68.20;;;;;;4782632;30;20072;-53
2022/10/20 10:27:31;;;;;;;10.40;7.13;;;17.90;68.00;;;;;;4783597;29;20058;-49
2022/10/20 10:30:21;;;;;;;7.80;5.80;;;17.90;67.90;;;;;;4784177;29;20058;-49
2022/10/20 10:32:47;;;;;;;9.38;6.65;;;17.90;67.60;;;;;;4780091;29;20055;-51
2022/10/20 10:35:24;;;;;;;6.90;5.80;;;18.00;67.70;;;;;;4792330;29;20509;-50
2022/10/20 10:37:54;;;;;;;7.93;6.18;;;18.00;67.80;;;;;;4786781;29;20051;-54
2022/10/20 10:40:37;;;;;;;8.13;6.68;;;18.00;67.70;;;;;;4784235;29;20501;-52
2022/10/20 10:43:30;;;;;;;8.80;6.07;;;18.10;67.50;;;;;;4781161;29;20046;-52
2022/10/20 10:46:00;;;;;;;7.55;6.60;;;18.00;67.40;;;;;;4781394;29;20122;-53
2022/10/20 10:48:51;;;;;;;11.35;6.88;;;18.00;67.70;;;;;;4784871;29;20052;-51
2022/10/20 10:51:23;;;;;;;10.07;6.70;;;18.10;67.70;;;;;;4777701;29;20139;-49
2022/10/20 10:53:50;;;;;;;8.85;6.55;;;18.00;67.60;;;;;;4784162;29;20108;-52
2022/10/20 10:56:25;;;;;;;8.20;6.70;;;18.00;67.70;;;;;;4782831;30;20119;-49
2022/10/20 10:59:22;;;;;;;7.65;6.15;;;18.00;68.00;;;;;;4783916;30;20051;-50
2022/10/20 11:02:10;;;;;;;8.05;7.25;;;18.00;68.10;;;;;;4785384;29;20051;-52
2022/10/20 11:04:48;;;;;;;7.57;6.82;;;18.00;68.40;;;;;;4787722;29;20054;-49
2022/10/20 11:07:33;;;;;;;6.97;6.28;;;18.00;68.40;;;;;;4780627;29;20039;-49
2022/10/20 11:10:09;;;;;;;7.97;6.90;;;17.90;68.50;;;;;;4781540;29;20101;-49
2022/10/20 11:12:39;;;;;;;9.68;7.15;;;17.90;68.50;;;;;;4785567;29;20059;-49
2022/10/20 11:15:12;;;;;;;9.30;7.63;;;17.90;68.70;;;;;;4784832;29;20047;-48
2022/10/20 11:18:16;;;;;;;11.73;7.25;;;17.80;69.00;;;;;;4792862;29;20552;-51
2022/10/20 11:20:46;;;;;;;9.35;6.80;;;17.80;69.20;;;;;;4784515;29;20055;-50
2022/10/20 11:23:33;;;;;;;9.90;6.45;;;17.80;69.10;;;;;;4783432;29;20050;-53
2022/10/20 11:26:31;;;;;;;14.63;8.03;;;17.70;69.20;;;;;;4795966;29;20122;-53
2022/10/20 11:29:01;;;;;;;7.78;6.93;;;17.70;69.40;;;;;;4784860;29;20361;-49
2022/10/20 11:31:50;;;;;;;9.98;7.57;;;17.70;69.20;;;;;;4788417;29;20051;-52
2022/10/20 11:34:42;;;;;;;9.65;7.22;;;17.60;69.60;;;;;;4788218;29;20086;-50
2022/10/20 11:37:24;;;;;;;11.50;7.72;;;17.60;70.10;;;;;;4786903;29;20043;-52
2022/10/20 11:40:10;;;;;;;12.10;7.78;;;17.50;70.10;;;;;;4786050;29;20058;-48
2022/10/20 11:42:51;;;;;;;8.90;7.40;;;17.50;70.10;;;;;;4788554;29;20051;-52
2022/10/20 11:45:30;;;;;;;8.38;7.20;;;17.40;70.30;;;;;;4788431;29;20054;-50
2022/10/20 11:48:23;;;;;;;10.23;7.53;;;17.40;70.40;;;;;;4782049;30;20067;-51
2022/10/20 11:51:03;;;;;;;8.50;6.95;;;17.30;70.80;;;;;;4785079;29;20415;-53
2022/10/20 11:54:00;;;;;;;10.23;8.18;;;17.30;71.10;;;;;;4786494;29;20055;-52
2022/10/20 11:56:37;;;;;;;9.57;7.93;;;17.20;71.20;;;;;;4777358;29;20071;-48
2022/10/20 11:59:11;;;;;;;11.32;8.20;;;17.20;71.50;;;;;;4788573;29;20062;-52
2022/10/20 12:02:02;;;;;;;12.40;8.23;;;17.20;71.50;;;;;;4788113;30;20051;-51
2022/10/20 12:04:54;;;;;;;9.93;7.50;;;17.20;72.00;;;;;;4769839;30;20113;-52
2022/10/20 12:07:36;;;;;;;10.48;7.90;;;17.20;72.50;;;;;;4778481;29;20104;-49
2022/10/20 12:10:50;;;;;;;11.68;7.85;;;17.20;72.70;;;;;;4787841;29;20047;-52
2022/10/20 12:13:29;;;;;;;10.48;7.80;;;17.30;72.90;;;;;;4767550;30;20082;-52
2022/10/20 12:15:55;;;;;;;10.00;8.15;;;17.30;73.00;;;;;;4785919;29;20064;-52
2022/10/20 12:18:38;;;;;;;10.15;8.38;;;17.40;72.90;;;;;;4784435;29;20047;-51
2022/10/20 12:21:08;;;;;;;11.52;8.88;;;17.50;73.50;;;;;;4787671;29;20047;-50
2022/10/20 12:23:44;;;;;;;10.73;8.27;;;17.60;73.00;;;;;;4787087;29;20080;-49
2022/10/20 12:26:29;;;;;;;9.75;7.75;;;17.70;73.10;;;;;;4780185;30;20119;-53
2022/10/20 12:28:56;;;;;;;9.68;8.25;;;17.70;73.10;;;;;;4783831;29;20525;-49
2022/10/20 12:31:24;;;;;;;10.73;8.45;;;17.80;73.10;;;;;;4784543;29;20047;-49
2022/10/20 12:33:55;;;;;;;9.85;8.35;;;17.90;73.40;;;;;;4794750;29;20501;-50
2022/10/20 12:36:33;;;;;;;11.35;9.55;;;18.00;73.50;;;;;;4796864;29;20071;-49
2022/10/20 12:39:15;;;;;;;8.98;7.95;;;18.10;73.20;;;;;;4789262;29;20066;-52
2022/10/20 12:42:00;;;;;;;12.05;8.38;;;18.30;73.00;;;;;;4786619;29;20087;-51
2022/10/20 12:44:30;;;;;;;9.93;8.18;;;18.40;73.00;;;;;;4786128;29;20527;-49
2022/10/20 12:47:04;;;;;;;9.35;8.35;;;18.50;72.30;;;;;;4786792;29;20078;-52
2022/10/20 12:49:36;;;;;;;9.20;8.10;;;18.50;72.00;;;;;;4789119;29;20047;-49
2022/10/20 12:52:06;;;;;;;9.25;7.57;;;18.60;71.60;;;;;;4774893;29;20044;-50
2022/10/20 12:54:38;;;;;;;13.88;8.63;;;18.70;71.60;;;;;;4786674;29;20043;-53
2022/10/20 12:57:34;;;;;;;9.65;8.00;;;18.70;71.80;;;;;;4790151;29;20112;-49
2022/10/20 13:00:03;;;;;;;9.23;6.93;;;18.80;72.00;;;;;;4787603;29;20040;-50
2022/10/20 13:02:31;;;;;;;9.15;7.90;;;18.80;71.50;;;;;;4780392;29;20255;-53
2022/10/20 13:05:07;;;;;;;8.80;7.70;;;18.80;71.30;;;;;;4782484;29;20055;-53
2022/10/20 13:07:49;;;;;;;11.88;8.10;;;18.80;71.20;;;;;;4793648;29;20054;-52
2022/10/20 13:10:36;;;;;;;10.15;7.25;;;18.90;71.30;;;;;;4801891;29;20067;-52
2022/10/20 13:13:05;;;;;;;8.45;7.50;;;18.90;71.60;;;;;;4776970;29;20055;-50